Time;durP1;ratioP1;P1;durP2;ratioP2;P2;SDS_P1;SDS_P2;PMS_P1;PMS_P2;Temp;Humidity;BMP_temperature;BMP_pressure;BME280_temperature;BME280_humidity;BME280_pressure;Samples;Min_cycle;Max_cycle;Signal;HPM_P1;HPM_P2
2024/04/17 00:00:33;;;;;;;2.05;0.93;;;21.30;60.90;;;;;;5368161;26;86343;-71
2024/04/17 00:02:58;;;;;;;0.85;0.50;;;21.30;60.80;;;;;;5366349;26;85765;-66
2024/04/17 00:05:26;;;;;;;0.80;0.68;;;21.20;60.80;;;;;;5331804;26;86759;-69
2024/04/17 00:07:52;;;;;;;0.35;0.35;;;21.20;60.70;;;;;;5331835;26;86666;-72
2024/04/17 00:10:18;;;;;;;0.57;0.40;;;21.20;60.70;;;;;;5363548;26;86235;-70
2024/04/17 00:12:43;;;;;;;1.40;0.70;;;21.20;61.60;;;;;;5366507;26;89913;-67
2024/04/17 00:15:09;;;;;;;0.70;0.40;;;21.20;60.70;;;;;;5400600;26;86464;-70
2024/04/17 00:17:35;;;;;;;0.60;0.43;;;21.20;60.60;;;;;;5336866;26;86867;-69
2024/04/17 00:20:02;;;;;;;2.38;0.80;;;21.20;61.10;;;;;;5366414;26;89837;-72
2024/04/17 00:22:28;;;;;;;0.68;0.55;;;21.20;60.90;;;;;;5400200;26;86763;-72
2024/04/17 00:24:54;;;;;;;0.50;0.50;;;21.20;60.70;;;;;;5400692;26;86579;-70
2024/04/17 00:27:20;;;;;;;0.80;0.60;;;21.20;61.00;;;;;;5369308;26;87018;-71
2024/04/17 00:29:46;;;;;;;0.85;0.75;;;21.10;60.70;;;;;;5338920;26;87303;-69
2024/04/17 00:32:12;;;;;;;0.40;0.40;;;21.10;60.80;;;;;;5398746;26;87409;-69
2024/04/17 00:34:38;;;;;;;0.50;0.50;;;21.10;60.70;;;;;;5398890;26;85629;-72
2024/04/17 00:37:04;;;;;;;0.60;0.60;;;21.20;60.70;;;;;;5366277;26;85893;-69
2024/04/17 00:39:29;;;;;;;0.98;0.68;;;21.10;60.60;;;;;;5398880;26;86529;-71
2024/04/17 00:41:55;;;;;;;1.15;0.60;;;21.10;60.70;;;;;;5397155;26;86535;-72
2024/04/17 00:44:21;;;;;;;0.30;0.30;;;21.10;60.60;;;;;;5367166;26;86242;-70
2024/04/17 00:46:47;;;;;;;0.52;0.50;;;21.10;60.50;;;;;;5399825;26;85379;-71
2024/04/17 00:49:13;;;;;;;0.52;0.50;;;21.10;60.40;;;;;;5396187;26;85953;-67
2024/04/17 00:51:40;;;;;;;0.73;0.60;;;21.10;60.50;;;;;;5399968;26;86569;-70
2024/04/17 00:54:07;;;;;;;0.50;0.50;;;21.00;60.50;;;;;;5367644;25;86746;-68
2024/04/17 00:56:34;;;;;;;0.93;0.47;;;21.10;60.50;;;;;;5331811;26;87115;-67
2024/04/17 00:59:00;;;;;;;0.77;0.63;;;21.10;60.50;;;;;;5362849;26;86582;-69
2024/04/17 01:01:26;;;;;;;1.65;0.55;;;21.10;60.50;;;;;;5331304;26;86427;-70
2024/04/17 01:03:52;;;;;;;0.65;0.40;;;21.00;60.40;;;;;;5365835;26;85844;-68
2024/04/17 01:06:19;;;;;;;1.13;0.60;;;21.00;60.60;;;;;;5345706;26;86179;-67
2024/04/17 01:08:45;;;;;;;0.52;0.50;;;21.00;60.40;;;;;;5362528;26;87738;-72
2024/04/17 01:11:12;;;;;;;0.60;0.45;;;21.00;60.40;;;;;;5365701;26;85966;-67
2024/04/17 01:13:39;;;;;;;0.80;0.55;;;21.00;60.40;;;;;;5334608;26;86517;-72
2024/04/17 01:16:06;;;;;;;0.80;0.50;;;21.00;60.20;;;;;;5335128;26;88404;-70
2024/04/17 01:18:33;;;;;;;0.88;0.50;;;21.00;60.50;;;;;;5365471;26;88113;-71
2024/04/17 01:21:00;;;;;;;0.60;0.35;;;21.00;60.50;;;;;;5363931;26;87376;-71
2024/04/17 01:23:26;;;;;;;0.80;0.55;;;21.00;60.20;;;;;;5365718;26;85557;-67
2024/04/17 01:25:52;;;;;;;0.40;0.32;;;21.00;60.40;;;;;;5364948;26;85846;-70
2024/04/17 01:28:18;;;;;;;0.40;0.40;;;21.00;60.30;;;;;;5352756;26;88045;-72
2024/04/17 01:30:47;;;;;;;0.47;0.47;;;20.90;60.20;;;;;;5366893;26;86212;-71
2024/04/17 01:33:12;;;;;;;2.77;0.73;;;20.90;60.20;;;;;;5367553;26;85464;-72
2024/04/17 01:35:38;;;;;;;1.83;0.50;;;20.90;60.20;;;;;;5363495;26;87907;-69
2024/04/17 01:38:04;;;;;;;0.73;0.47;;;20.90;60.30;;;;;;5388118;26;86643;-69
2024/04/17 01:40:30;;;;;;;0.82;0.50;;;20.90;60.20;;;;;;5364037;26;86262;-70
2024/04/17 01:42:56;;;;;;;0.90;0.55;;;20.90;60.20;;;;;;5365061;26;87345;-71
2024/04/17 01:45:21;;;;;;;0.43;0.38;;;20.90;60.20;;;;;;5337694;26;86324;-71
2024/04/17 01:47:47;;;;;;;1.17;0.55;;;20.80;60.20;;;;;;5396329;26;87217;-69
2024/04/17 01:50:13;;;;;;;0.52;0.40;;;20.80;60.20;;;;;;5398287;25;86196;-70
2024/04/17 01:52:39;;;;;;;0.38;0.35;;;20.80;60.20;;;;;;5361970;26;85801;-72
2024/04/17 01:55:06;;;;;;;0.80;0.70;;;20.80;60.20;;;;;;5365393;26;86537;-71
2024/04/17 01:57:31;;;;;;;1.85;0.52;;;20.80;60.20;;;;;;5373971;26;86826;-69
2024/04/17 01:59:57;;;;;;;0.50;0.50;;;20.80;59.90;;;;;;5360770;26;86563;-68
2024/04/17 02:02:23;;;;;;;0.93;0.45;;;20.80;59.90;;;;;;5332961;26;86098;-70
2024/04/17 02:04:49;;;;;;;1.23;0.68;;;20.80;60.10;;;;;;5328021;26;86824;-71
2024/04/17 02:07:14;;;;;;;0.82;0.57;;;20.80;60.00;;;;;;5323776;26;88377;-69
2024/04/17 02:09:40;;;;;;;0.98;0.47;;;20.80;60.10;;;;;;5361896;26;87898;-70
2024/04/17 02:12:07;;;;;;;0.52;0.40;;;20.80;59.90;;;;;;5365626;26;85975;-70
2024/04/17 02:14:32;;;;;;;0.85;0.60;;;20.80;59.80;;;;;;5332445;26;86860;-70
2024/04/17 02:16:58;;;;;;;0.55;0.50;;;20.80;59.90;;;;;;5331886;26;87138;-69
2024/04/17 02:19:24;;;;;;;1.88;0.50;;;20.80;59.80;;;;;;5332318;26;87916;-69
2024/04/17 02:21:50;;;;;;;1.00;0.50;;;20.80;59.80;;;;;;5361246;26;85815;-68
2024/04/17 02:24:15;;;;;;;0.60;0.40;;;20.80;60.70;;;;;;5333092;26;85323;-70
2024/04/17 02:26:41;;;;;;;0.35;0.35;;;20.80;59.90;;;;;;5361303;26;86691;-70
2024/04/17 02:29:09;;;;;;;1.02;0.68;;;20.70;59.90;;;;;;5331227;26;87783;-71
2024/04/17 02:31:34;;;;;;;1.48;0.60;;;20.70;59.80;;;;;;5329099;26;86774;-71
2024/04/17 02:34:00;;;;;;;0.73;0.45;;;20.70;59.80;;;;;;5360035;26;85768;-70
2024/04/17 02:36:26;;;;;;;0.30;0.30;;;20.70;59.90;;;;;;5366191;26;87277;-67
2024/04/17 02:38:52;;;;;;;1.17;0.70;;;20.70;59.80;;;;;;5332567;26;87790;-69
2024/04/17 02:41:18;;;;;;;0.50;0.50;;;20.70;59.80;;;;;;5364686;26;85729;-69
2024/04/17 02:43:43;;;;;;;0.95;0.57;;;20.70;59.80;;;;;;5333261;26;86822;-72
2024/04/17 02:46:10;;;;;;;1.08;0.45;;;20.70;59.90;;;;;;5364389;26;86634;-69
2024/04/17 02:48:35;;;;;;;0.52;0.40;;;20.70;59.80;;;;;;5338404;26;86572;-69
2024/04/17 02:51:01;;;;;;;1.05;0.50;;;20.70;59.80;;;;;;5332583;26;86636;-68
2024/04/17 02:53:27;;;;;;;0.57;0.40;;;20.70;59.80;;;;;;5366051;26;85928;-68
2024/04/17 02:55:54;;;;;;;0.47;0.40;;;20.70;59.80;;;;;;5365625;26;87688;-69
2024/04/17 02:58:20;;;;;;;0.30;0.30;;;20.70;59.80;;;;;;5334817;26;89350;-71
2024/04/17 03:00:45;;;;;;;0.57;0.38;;;20.70;59.70;;;;;;5364918;26;86404;-68
2024/04/17 03:03:11;;;;;;;1.20;0.80;;;20.60;59.80;;;;;;5335249;26;86767;-69
2024/04/17 03:05:38;;;;;;;0.80;0.50;;;20.60;59.90;;;;;;5364726;26;86518;-70
2024/04/17 03:08:04;;;;;;;0.75;0.65;;;20.60;59.90;;;;;;5364699;26;85695;-69
2024/04/17 03:10:30;;;;;;;1.70;0.60;;;20.60;59.90;;;;;;5333647;26;85952;-68
2024/04/17 03:12:57;;;;;;;0.68;0.40;;;20.60;59.80;;;;;;5366220;26;85604;-68
2024/04/17 03:15:22;;;;;;;0.57;0.43;;;20.60;59.90;;;;;;5334453;26;88464;-72
2024/04/17 03:17:48;;;;;;;3.55;1.08;;;20.60;59.80;;;;;;5365148;26;86279;-70
2024/04/17 03:20:14;;;;;;;2.00;0.52;;;20.60;59.80;;;;;;5363447;26;87110;-67
2024/04/17 03:22:41;;;;;;;0.40;0.40;;;20.50;59.80;;;;;;5364540;26;86243;-71
2024/04/17 03:25:07;;;;;;;0.32;0.32;;;20.60;59.80;;;;;;5334180;26;87790;-68
2024/04/17 03:27:33;;;;;;;0.70;0.43;;;20.50;59.60;;;;;;5335111;26;86414;-70
2024/04/17 03:29:59;;;;;;;0.35;0.35;;;20.60;59.70;;;;;;5366326;26;85701;-72
2024/04/17 03:32:25;;;;;;;0.82;0.52;;;20.50;59.80;;;;;;5365756;26;86341;-71
2024/04/17 03:34:51;;;;;;;0.47;0.47;;;20.50;59.70;;;;;;5399913;26;87479;-68
2024/04/17 03:37:17;;;;;;;0.73;0.43;;;20.50;59.60;;;;;;5366346;26;88686;-69
2024/04/17 03:39:43;;;;;;;0.35;0.30;;;20.50;59.70;;;;;;5399173;26;86155;-69
2024/04/17 03:42:09;;;;;;;0.75;0.40;;;20.50;59.70;;;;;;5368319;26;86903;-69
2024/04/17 03:44:35;;;;;;;0.77;0.57;;;20.50;59.60;;;;;;5374209;25;87563;-68
2024/04/17 03:47:01;;;;;;;1.10;0.55;;;20.50;59.60;;;;;;5364189;26;87428;-71
2024/04/17 03:49:28;;;;;;;0.30;0.30;;;20.50;59.60;;;;;;5334152;26;86023;-70
2024/04/17 03:51:54;;;;;;;0.45;0.45;;;20.50;59.70;;;;;;5365050;26;86029;-68
2024/04/17 03:54:21;;;;;;;1.10;0.63;;;20.50;59.60;;;;;;5334699;26;87142;-70
2024/04/17 03:56:47;;;;;;;0.40;0.40;;;20.50;59.60;;;;;;5333790;26;87440;-67
2024/04/17 03:59:12;;;;;;;0.50;0.40;;;20.40;59.60;;;;;;5365616;26;86274;-69
2024/04/17 04:01:38;;;;;;;0.38;0.38;;;20.40;59.60;;;;;;5369128;26;87701;-72
2024/04/17 04:04:04;;;;;;;0.47;0.40;;;20.40;59.70;;;;;;5401262;26;86243;-70
2024/04/17 04:06:30;;;;;;;0.73;0.47;;;20.40;59.80;;;;;;5398523;26;87169;-68
2024/04/17 04:08:56;;;;;;;0.63;0.40;;;20.40;59.70;;;;;;5395426;26;87537;-68
2024/04/17 04:11:22;;;;;;;0.50;0.40;;;20.40;59.80;;;;;;5399667;26;86014;-68
2024/04/17 04:13:50;;;;;;;1.10;0.57;;;20.40;59.80;;;;;;5399255;26;86196;-70
2024/04/17 04:16:15;;;;;;;0.60;0.40;;;20.40;59.60;;;;;;5399091;26;87195;-71
2024/04/17 04:18:41;;;;;;;0.63;0.52;;;20.40;59.60;;;;;;5400180;26;85786;-68
2024/04/17 04:21:08;;;;;;;0.90;0.60;;;20.40;59.70;;;;;;5401074;26;86150;-71
2024/04/17 04:23:34;;;;;;;0.52;0.50;;;20.40;59.90;;;;;;5367821;26;87300;-69
2024/04/17 04:26:01;;;;;;;1.13;0.60;;;20.40;59.80;;;;;;5368468;26;89029;-69
2024/04/17 04:28:27;;;;;;;1.00;0.43;;;20.40;59.80;;;;;;5399924;26;86312;-70
2024/04/17 04:30:53;;;;;;;0.50;0.35;;;20.40;59.80;;;;;;5310104;26;86180;-70
2024/04/17 04:33:19;;;;;;;0.30;0.30;;;20.40;59.70;;;;;;5367584;26;87159;-70
2024/04/17 04:35:45;;;;;;;1.00;0.50;;;20.40;59.70;;;;;;5396390;26;86754;-70
2024/04/17 04:38:10;;;;;;;1.65;0.70;;;20.40;59.70;;;;;;5367305;26;86239;-70
2024/04/17 04:40:36;;;;;;;1.92;0.80;;;20.40;59.60;;;;;;5376921;25;86053;-69
2024/04/17 04:43:02;;;;;;;0.30;0.30;;;20.40;59.50;;;;;;5361837;26;87502;-70
2024/04/17 04:45:27;;;;;;;0.88;0.60;;;20.40;59.40;;;;;;5335489;26;86913;-69
2024/04/17 04:47:53;;;;;;;1.17;0.65;;;20.40;59.60;;;;;;5375780;26;85925;-67
2024/04/17 04:50:19;;;;;;;0.50;0.50;;;20.40;59.60;;;;;;5332380;26;88945;-70
2024/04/17 04:52:46;;;;;;;0.63;0.45;;;20.30;59.60;;;;;;5361809;26;86493;-69
2024/04/17 04:55:12;;;;;;;0.40;0.40;;;20.40;59.60;;;;;;5335780;26;88045;-70
2024/04/17 04:57:38;;;;;;;1.05;0.50;;;20.30;59.50;;;;;;5363761;26;86803;-70
2024/04/17 05:00:04;;;;;;;0.40;0.40;;;20.30;59.40;;;;;;5335839;26;86913;-71
2024/04/17 05:02:29;;;;;;;1.00;0.50;;;20.30;59.60;;;;;;5365295;26;87159;-70
2024/04/17 05:04:55;;;;;;;0.60;0.57;;;20.30;59.60;;;;;;5361868;26;86596;-69
2024/04/17 05:07:23;;;;;;;1.02;0.38;;;20.30;59.60;;;;;;5342612;26;86246;-72
2024/04/17 05:09:49;;;;;;;1.90;0.50;;;20.30;59.50;;;;;;5368051;26;91422;-74
2024/04/17 05:12:14;;;;;;;0.98;0.40;;;20.30;59.50;;;;;;5369791;26;88739;-70
2024/04/17 05:14:44;;;;;;;0.73;0.68;;;20.30;59.60;;;;;;5368043;26;87353;-76
2024/04/17 05:17:10;;;;;;;0.38;0.38;;;20.20;59.50;;;;;;5367427;26;86044;-73
2024/04/17 05:19:36;;;;;;;0.47;0.40;;;20.20;59.50;;;;;;5400662;26;86357;-72
2024/04/17 05:22:02;;;;;;;2.38;0.77;;;20.20;59.50;;;;;;5401027;26;87586;-71
2024/04/17 05:24:27;;;;;;;0.77;0.40;;;20.20;59.10;;;;;;5400700;26;87466;-70
2024/04/17 05:26:53;;;;;;;0.77;0.50;;;20.20;56.00;;;;;;5368359;26;86139;-72
2024/04/17 05:29:20;;;;;;;3.10;0.70;;;20.20;56.80;;;;;;5368004;26;89293;-72
2024/04/17 05:31:49;;;;;;;1.00;0.75;;;20.10;57.20;;;;;;5363830;26;86914;-70
2024/04/17 05:34:14;;;;;;;0.85;0.50;;;20.10;57.10;;;;;;5364741;26;87109;-71
2024/04/17 05:36:40;;;;;;;0.75;0.50;;;20.10;57.10;;;;;;5339200;26;90124;-72
2024/04/17 05:39:08;;;;;;;0.93;0.45;;;20.10;57.30;;;;;;5368725;26;88575;-71
2024/04/17 05:41:34;;;;;;;0.65;0.50;;;20.10;57.20;;;;;;5368146;26;88038;-70
2024/04/17 05:44:00;;;;;;;0.70;0.47;;;20.10;57.30;;;;;;5337045;26;86810;-67
2024/04/17 05:46:27;;;;;;;1.00;0.68;;;20.10;57.20;;;;;;5365945;26;86535;-73
2024/04/17 05:48:55;;;;;;;0.75;0.43;;;20.00;57.10;;;;;;5366638;26;85697;-72
2024/04/17 05:51:22;;;;;;;0.90;0.60;;;20.10;57.60;;;;;;5336247;26;89601;-72
2024/04/17 05:53:48;;;;;;;0.73;0.50;;;20.10;56.80;;;;;;5331398;26;86445;-69
2024/04/17 05:56:15;;;;;;;0.50;0.50;;;20.10;57.10;;;;;;5334342;26;86111;-71
2024/04/17 05:58:42;;;;;;;1.30;0.88;;;20.00;56.70;;;;;;5335513;26;87269;-72
2024/04/17 06:01:08;;;;;;;0.63;0.50;;;20.00;56.90;;;;;;5333182;26;87984;-69
2024/04/17 06:03:34;;;;;;;1.15;0.50;;;20.00;56.70;;;;;;5335089;26;86854;-70
2024/04/17 06:06:01;;;;;;;0.63;0.50;;;20.00;56.80;;;;;;5362883;26;85907;-69
2024/04/17 06:08:26;;;;;;;1.88;0.63;;;20.10;57.40;;;;;;5333780;26;87790;-72
2024/04/17 06:10:52;;;;;;;0.50;0.40;;;20.10;57.20;;;;;;5364041;26;86612;-73
2024/04/17 06:13:19;;;;;;;0.70;0.43;;;20.10;56.80;;;;;;5362573;26;87286;-69
2024/04/17 06:15:45;;;;;;;0.70;0.45;;;20.10;56.90;;;;;;5363972;26;85865;-69
2024/04/17 06:18:12;;;;;;;1.38;0.60;;;20.30;56.20;;;;;;5335839;26;86739;-71
2024/04/17 06:20:38;;;;;;;0.93;0.60;;;20.60;55.80;;;;;;5330652;26;86900;-70
2024/04/17 06:23:04;;;;;;;2.20;0.82;;;20.70;56.40;;;;;;5361347;26;86052;-68
2024/04/17 06:25:30;;;;;;;0.73;0.50;;;21.00;56.40;;;;;;5331176;26;86652;-73
2024/04/17 06:27:56;;;;;;;2.15;0.50;;;21.00;56.40;;;;;;5332931;26;87679;-72
2024/04/17 06:30:23;;;;;;;0.80;0.80;;;21.20;56.10;;;;;;5333704;26;89555;-73
2024/04/17 06:32:49;;;;;;;0.70;0.50;;;21.20;56.10;;;;;;5343909;26;86678;-73
2024/04/17 06:35:15;;;;;;;0.60;0.50;;;21.30;56.10;;;;;;5363771;26;86908;-70
2024/04/17 06:37:41;;;;;;;0.88;0.75;;;21.60;56.00;;;;;;5365523;26;86465;-73
2024/04/17 06:40:07;;;;;;;0.40;0.32;;;21.70;55.30;;;;;;5380157;26;86036;-70
2024/04/17 06:42:33;;;;;;;0.45;0.40;;;21.90;55.10;;;;;;5397443;26;86303;-74
2024/04/17 06:45:01;;;;;;;2.65;0.60;;;22.00;55.00;;;;;;5365919;26;86039;-74
2024/04/17 06:47:27;;;;;;;1.03;0.60;;;22.20;54.70;;;;;;5399695;26;85960;-71
2024/04/17 06:49:54;;;;;;;0.47;0.40;;;22.30;54.20;;;;;;5398722;26;86449;-76
2024/04/17 06:52:20;;;;;;;0.73;0.60;;;22.40;54.10;;;;;;5358080;26;86579;-73
2024/04/17 06:54:46;;;;;;;0.77;0.50;;;22.60;53.80;;;;;;5354634;26;86922;-69
2024/04/17 06:57:12;;;;;;;0.60;0.60;;;22.70;53.70;;;;;;5396271;26;85900;-71
2024/04/17 06:59:38;;;;;;;1.23;0.70;;;22.70;53.40;;;;;;5363761;26;88611;-72
2024/04/17 07:02:05;;;;;;;1.10;0.52;;;22.70;54.10;;;;;;5362401;26;88073;-71
2024/04/17 07:04:30;;;;;;;0.80;0.60;;;22.70;53.30;;;;;;5365558;26;85975;-64
2024/04/17 07:06:56;;;;;;;1.25;0.60;;;22.70;53.30;;;;;;5397052;26;86141;-64
2024/04/17 07:09:22;;;;;;;0.68;0.30;;;22.70;53.40;;;;;;5396901;26;86642;-66
2024/04/17 07:11:49;;;;;;;0.68;0.50;;;22.80;53.50;;;;;;5348929;26;88942;-67
2024/04/17 07:14:15;;;;;;;0.52;0.30;;;22.80;53.60;;;;;;5359147;26;85860;-67
2024/04/17 07:16:41;;;;;;;0.40;0.40;;;22.80;53.70;;;;;;5361201;26;85721;-67
2024/04/17 07:19:07;;;;;;;1.67;0.50;;;22.70;53.90;;;;;;5370081;26;88028;-70
2024/04/17 07:21:33;;;;;;;1.42;0.63;;;22.80;53.20;;;;;;5372718;26;86737;-71
2024/04/17 07:23:59;;;;;;;5.55;0.68;;;22.80;53.30;;;;;;5343450;26;86749;-71
2024/04/17 07:26:25;;;;;;;0.63;0.50;;;22.80;53.50;;;;;;5343396;26;86323;-74
2024/04/17 07:28:54;;;;;;;4.80;0.80;;;22.90;53.60;;;;;;5350401;26;87743;-70
2024/04/17 07:31:20;;;;;;;3.15;1.27;;;22.90;53.40;;;;;;5376983;26;85935;-69
2024/04/17 07:33:49;;;;;;;10.30;1.83;;;23.00;53.50;;;;;;5343150;26;86263;-69
2024/04/17 07:36:15;;;;;;;12.40;2.45;;;22.90;51.60;;;;;;5372795;25;86532;-72
2024/04/17 07:38:41;;;;;;;12.93;2.97;;;22.80;51.20;;;;;;5384725;26;86118;-69
2024/04/17 07:41:09;;;;;;;14.43;4.05;;;22.80;53.00;;;;;;5350883;26;85913;-75
2024/04/17 07:43:35;;;;;;;13.25;2.92;;;22.80;52.30;;;;;;5345761;26;86071;-75
2024/04/17 07:46:01;;;;;;;10.63;2.85;;;22.80;52.40;;;;;;5382101;26;86286;-74
2024/04/17 07:48:29;;;;;;;11.05;2.13;;;22.90;52.80;;;;;;5368348;26;87168;-72
2024/04/17 07:50:54;;;;;;;13.27;2.63;;;22.90;52.60;;;;;;5334071;26;88061;-72
2024/04/17 07:53:20;;;;;;;13.02;2.67;;;23.00;52.80;;;;;;5403005;26;86959;-70
2024/04/17 07:55:47;;;;;;;10.63;3.05;;;23.00;53.00;;;;;;5401813;26;85903;-71
2024/04/17 07:58:14;;;;;;;9.13;3.15;;;23.00;53.00;;;;;;5401929;26;86341;-74
2024/04/17 08:00:41;;;;;;;10.38;2.92;;;23.00;53.30;;;;;;5367565;26;89977;-73
2024/04/17 08:03:11;;;;;;;11.60;3.13;;;23.00;53.50;;;;;;5394334;26;86202;-72
2024/04/17 08:05:41;;;;;;;12.50;2.58;;;22.90;50.80;;;;;;5363159;26;85587;-71
2024/04/17 08:08:07;;;;;;;10.73;2.85;;;22.70;51.00;;;;;;5334622;26;89151;-74
2024/04/17 08:10:34;;;;;;;10.00;2.58;;;22.60;53.00;;;;;;5365646;26;86539;-75
2024/04/17 08:13:15;;;;;;;15.73;2.85;;;22.60;53.00;;;;;;5349248;26;87214;-73
2024/04/17 08:15:45;;;;;;;10.90;3.45;;;22.50;52.60;;;;;;5365634;26;85864;-74
2024/04/17 08:18:11;;;;;;;14.60;3.88;;;22.40;52.90;;;;;;5367290;26;86042;-71
2024/04/17 08:20:38;;;;;;;10.43;3.92;;;22.40;53.10;;;;;;5331775;26;87346;-71
2024/04/17 08:23:04;;;;;;;10.98;3.00;;;22.40;54.40;;;;;;5344495;26;86186;-69
2024/04/17 08:25:30;;;;;;;9.23;3.28;;;22.60;54.50;;;;;;5347318;26;86993;-69
2024/04/17 08:27:56;;;;;;;12.65;2.47;;;22.60;53.50;;;;;;5377572;26;86568;-74
2024/04/17 08:30:21;;;;;;;14.90;3.10;;;22.70;53.50;;;;;;5371274;26;86895;-71
2024/04/17 08:32:47;;;;;;;7.20;2.40;;;22.70;53.00;;;;;;4390568;26;10000571;-73
2024/04/17 08:35:13;;;;;;;14.13;3.00;;;22.60;53.20;;;;;;5378194;26;86077;-72
2024/04/17 08:37:39;;;;;;;13.68;3.92;;;22.50;53.40;;;;;;5361155;25;89414;-70
2024/04/17 08:40:05;;;;;;;11.30;3.03;;;22.60;53.80;;;;;;5371844;26;86082;-69
2024/04/17 08:42:35;;;;;;;13.45;4.35;;;22.80;54.10;;;;;;5351912;26;87304;-71
2024/04/17 08:45:10;;;;;;;9.50;2.92;;;22.80;54.30;;;;;;5335961;26;87168;-71
2024/04/17 08:47:45;;;;;;;10.65;2.63;;;22.90;53.70;;;;;;5311883;26;88061;-70
2024/04/17 08:50:15;;;;;;;9.52;3.03;;;22.90;53.20;;;;;;5347338;25;88325;-71
2024/04/17 08:52:42;;;;;;;10.48;2.78;;;22.90;53.10;;;;;;5380670;26;87375;-72
2024/04/17 08:55:12;;;;;;;8.95;2.40;;;22.90;52.20;;;;;;5370970;26;85915;-73
2024/04/17 08:57:38;;;;;;;10.05;2.90;;;23.00;52.60;;;;;;5365418;26;86011;-68
2024/04/17 09:00:05;;;;;;;14.70;3.85;;;22.90;51.90;;;;;;5334659;26;89458;-74
2024/04/17 09:02:33;;;;;;;10.57;3.25;;;22.80;52.70;;;;;;5361039;26;87600;-68
2024/04/17 09:04:59;;;;;;;16.08;3.88;;;22.70;52.60;;;;;;5324610;26;87315;-71
2024/04/17 09:07:27;;;;;;;13.93;3.78;;;22.80;52.80;;;;;;5366396;26;85828;-71
2024/04/17 09:09:53;;;;;;;17.15;3.63;;;22.90;52.80;;;;;;5335290;26;86122;-69
2024/04/17 09:12:20;;;;;;;14.02;2.95;;;22.90;52.50;;;;;;5364557;26;86671;-72
2024/04/17 09:14:46;;;;;;;9.18;3.28;;;22.90;52.50;;;;;;5334201;26;87480;-69
2024/04/17 09:17:12;;;;;;;19.08;3.45;;;22.90;52.70;;;;;;5334695;26;87028;-73
2024/04/17 09:19:38;;;;;;;12.70;3.00;;;22.80;52.90;;;;;;5322600;26;87315;-72
2024/04/17 09:22:04;;;;;;;10.88;3.58;;;22.80;53.00;;;;;;5335738;26;87157;-70
2024/04/17 09:24:38;;;;;;;6.55;2.45;;;22.80;53.30;;;;;;5365523;26;85840;-72
2024/04/17 09:27:05;;;;;;;10.27;2.83;;;22.90;53.30;;;;;;5334388;26;87699;-70
2024/04/17 09:29:32;;;;;;;13.38;3.00;;;22.90;53.30;;;;;;5366333;26;86004;-72
2024/04/17 09:31:58;;;;;;;15.75;3.38;;;22.90;53.20;;;;;;5364237;26;87508;-69
2024/04/17 09:34:24;;;;;;;13.90;3.35;;;22.90;53.30;;;;;;5364882;26;86456;-71
2024/04/17 09:36:49;;;;;;;12.38;3.25;;;22.80;53.50;;;;;;5365062;26;86665;-70
2024/04/17 09:39:15;;;;;;;14.18;4.20;;;22.90;53.60;;;;;;5334480;26;86186;-68
2024/04/17 09:41:42;;;;;;;12.15;2.83;;;22.90;53.40;;;;;;5325096;26;86235;-71
2024/04/17 09:44:11;;;;;;;13.48;2.47;;;22.90;53.40;;;;;;5365090;26;86580;-72
2024/04/17 09:46:37;;;;;;;12.17;2.83;;;22.90;53.40;;;;;;5399000;25;86514;-72
2024/04/17 09:49:33;;;;;;;9.38;2.53;;;22.80;53.50;;;;;;5381989;26;86866;-70
2024/04/17 09:52:03;;;;;;;11.00;3.47;;;22.70;53.80;;;;;;5358135;26;86972;-70
2024/04/17 09:54:29;;;;;;;6.88;2.17;;;22.80;54.10;;;;;;5365311;26;87358;-73
2024/04/17 09:56:56;;;;;;;8.10;2.30;;;22.90;53.80;;;;;;5365938;26;85896;-71
2024/04/17 09:59:23;;;;;;;9.38;2.42;;;22.90;53.90;;;;;;5365771;26;85575;-71
2024/04/17 10:01:50;;;;;;;10.05;2.78;;;22.90;53.80;;;;;;5332654;26;87651;-73
2024/04/17 10:04:17;;;;;;;9.77;3.15;;;22.80;53.90;;;;;;5365764;26;86499;-72
2024/04/17 10:06:44;;;;;;;12.75;3.00;;;22.60;54.30;;;;;;5334195;26;85885;-69
2024/04/17 10:09:13;;;;;;;9.50;2.72;;;22.70;54.30;;;;;;5334820;26;87822;-73
2024/04/17 10:11:40;;;;;;;7.95;2.17;;;22.80;54.50;;;;;;5365209;26;91456;-71
2024/04/17 10:14:13;;;;;;;8.80;2.58;;;22.90;54.00;;;;;;5361724;26;87141;-71
2024/04/17 10:16:39;;;;;;;7.75;2.63;;;22.90;53.70;;;;;;5363047;26;86809;-72
2024/04/17 10:19:06;;;;;;;9.90;2.95;;;22.90;53.50;;;;;;5334233;26;86878;-71
2024/04/17 10:21:36;;;;;;;6.75;2.80;;;22.90;53.50;;;;;;5359823;26;86757;-72
2024/04/17 10:24:12;;;;;;;10.70;3.15;;;22.80;54.30;;;;;;5365935;26;86651;-70
2024/04/17 10:26:45;;;;;;;10.63;2.70;;;22.70;54.20;;;;;;5396655;26;85703;-72
2024/04/17 10:29:24;;;;;;;8.00;2.45;;;22.50;54.90;;;;;;5398264;26;85802;-71
2024/04/17 10:31:55;;;;;;;6.30;2.50;;;22.50;54.90;;;;;;5329623;26;86320;-71
2024/04/17 10:34:22;;;;;;;6.78;2.40;;;22.60;54.60;;;;;;5373226;26;86498;-69
2024/04/17 10:37:00;;;;;;;5.65;1.80;;;22.70;54.30;;;;;;5341671;26;86098;-70
2024/04/17 10:39:27;;;;;;;7.77;2.83;;;22.80;54.10;;;;;;5335239;26;86258;-69
2024/04/17 10:41:54;;;;;;;9.43;2.47;;;22.80;53.10;;;;;;5348652;26;88714;-70
2024/04/17 10:44:21;;;;;;;10.55;2.80;;;22.90;53.20;;;;;;5340452;26;90122;-74
2024/04/17 10:46:47;;;;;;;8.38;2.50;;;22.80;53.20;;;;;;5346637;26;85810;-73
2024/04/17 10:49:17;;;;;;;7.72;2.83;;;22.90;53.60;;;;;;5351596;26;86768;-72
2024/04/17 10:51:44;;;;;;;11.30;3.40;;;22.90;53.90;;;;;;5382403;26;86681;-69
2024/04/17 10:54:13;;;;;;;8.20;3.03;;;23.00;54.00;;;;;;5345197;26;87373;-72
2024/04/17 10:56:40;;;;;;;;;;;23.00;54.30;;;;;;5351492;26;86122;-74
2024/04/17 10:59:06;;;;;;;14.27;3.28;;;23.10;54.40;;;;;;5352298;26;88055;-73
2024/04/17 11:01:33;;;;;;;10.93;3.25;;;23.10;54.40;;;;;;5345608;26;87496;-73
2024/04/17 11:04:00;;;;;;;14.82;3.40;;;23.10;54.40;;;;;;5350803;26;87995;-73
2024/04/17 11:06:26;;;;;;;9.75;3.15;;;23.10;54.10;;;;;;5379856;26;86588;-69
2024/04/17 11:08:55;;;;;;;8.17;2.47;;;23.10;53.90;;;;;;4427139;26;10000581;-69
2024/04/17 11:11:21;;;;;;;7.30;2.40;;;23.20;53.90;;;;;;5343646;26;85870;-67
2024/04/17 11:13:47;;;;;;;8.90;2.90;;;23.20;54.00;;;;;;5346594;26;86304;-72
2024/04/17 11:16:13;;;;;;;10.63;2.97;;;23.20;54.00;;;;;;5383489;26;86676;-70
2024/04/17 11:18:41;;;;;;;7.65;2.80;;;23.20;54.30;;;;;;5356030;26;87562;-72
2024/04/17 11:21:09;;;;;;;5.78;2.40;;;23.20;54.70;;;;;;5381651;26;86245;-69
2024/04/17 11:23:42;;;;;;;9.43;2.42;;;23.10;54.90;;;;;;5350766;26;87591;-71
2024/04/17 11:26:12;;;;;;;6.90;1.95;;;23.20;55.60;;;;;;5344033;26;90066;-75
2024/04/17 11:28:41;;;;;;;;;;;23.10;50.80;;;;;;5346045;26;86246;-69
2024/04/17 11:31:09;;;;;;;10.65;2.13;;;23.00;54.60;;;;;;5353948;26;87539;-71
2024/04/17 11:33:36;;;;;;;7.90;2.00;;;23.00;54.70;;;;;;5383204;26;86190;-72
2024/04/17 11:36:09;;;;;;;7.93;2.42;;;23.10;54.30;;;;;;5349050;26;87824;-67
2024/04/17 11:38:36;;;;;;;4.75;1.98;;;23.10;54.90;;;;;;5385052;25;86753;-70
2024/04/17 11:41:02;;;;;;;7.40;2.65;;;22.90;51.30;;;;;;5352126;26;86473;-75
2024/04/17 11:43:29;;;;;;;6.85;2.20;;;22.80;53.50;;;;;;5373338;26;87354;-78
2024/04/17 11:45:54;;;;;;;9.40;2.38;;;22.90;55.00;;;;;;5376737;26;86517;-74
2024/04/17 11:48:20;;;;;;;10.85;1.95;;;23.00;55.00;;;;;;5384819;26;86850;-73
2024/04/17 11:50:48;;;;;;;7.85;1.88;;;23.00;55.20;;;;;;5343003;26;86114;-71
2024/04/17 11:53:14;;;;;;;4.45;1.50;;;22.80;51.70;;;;;;5373691;26;86054;-75
2024/04/17 11:55:40;;;;;;;6.90;1.77;;;22.80;54.70;;;;;;5344919;26;89182;-72
2024/04/17 11:58:07;;;;;;;8.88;2.53;;;22.90;55.20;;;;;;5371175;26;87410;-71
2024/04/17 12:00:34;;;;;;;6.50;1.30;;;22.90;54.90;;;;;;5342970;26;86447;-72
2024/04/17 12:03:00;;;;;;;4.63;1.40;;;23.00;56.30;;;;;;5378409;26;87169;-76
2024/04/17 12:05:26;;;;;;;6.25;1.88;;;23.00;54.70;;;;;;5371177;26;86264;-69
2024/04/17 12:07:53;;;;;;;5.80;2.38;;;23.10;53.80;;;;;;5344226;26;89516;-71
2024/04/17 12:10:19;;;;;;;7.90;2.78;;;23.10;53.40;;;;;;5334458;26;85453;-75
2024/04/17 12:12:46;;;;;;;6.95;2.25;;;23.10;53.30;;;;;;5383271;26;87421;-72
2024/04/17 12:15:11;;;;;;;8.60;3.30;;;23.20;53.30;;;;;;5370902;26;86705;-73
2024/04/17 12:17:37;;;;;;;9.75;3.20;;;23.20;52.90;;;;;;5374187;26;86530;-70
2024/04/17 12:20:03;;;;;;;7.72;2.30;;;23.20;53.00;;;;;;5373406;26;87200;-68
2024/04/17 12:22:30;;;;;;;9.63;2.20;;;23.20;52.30;;;;;;5378082;25;86035;-72
2024/04/17 12:27:41;;;;;;;7.22;2.00;;;23.20;52.30;;;;;;5371336;26;86429;-71
2024/04/17 12:30:06;;;;;;;7.93;2.42;;;23.20;52.00;;;;;;5344460;26;85430;-71
2024/04/17 12:32:33;;;;;;;6.80;2.33;;;23.20;51.90;;;;;;5370532;26;86430;-72
2024/04/17 12:34:59;;;;;;;9.25;1.80;;;23.20;52.10;;;;;;5348547;26;87448;-70
2024/04/17 12:37:24;;;;;;;9.43;2.25;;;23.20;52.30;;;;;;5373764;26;85798;-69
2024/04/17 12:39:52;;;;;;;15.38;3.28;;;23.20;51.30;;;;;;5342871;26;85828;-67
2024/04/17 12:42:17;;;;;;;8.55;2.75;;;23.20;51.30;;;;;;5372018;26;86696;-67
2024/04/17 12:44:43;;;;;;;6.88;2.08;;;23.20;50.90;;;;;;5378236;26;87342;-68